createdAt,value
2023-01-10T00:01:45.672Z,100409.53
2023-01-10T00:04:13.603Z,100410.44
2023-01-10T00:06:41.476Z,100405.41
2023-01-10T00:09:10.747Z,100403.78
2023-01-10T00:11:56.212Z,100401.19
2023-01-10T00:14:28.724Z,100391.81
2023-01-10T00:16:56.759Z,100398.69
2023-01-10T00:19:24.744Z,100391.81
2023-01-10T00:21:52.868Z,100386.72
2023-01-10T00:24:20.733Z,100395.28
2023-01-10T00:26:52.091Z,100395.41
2023-01-10T00:29:20.976Z,100394.44
2023-01-10T00:31:50.363Z,100384.19
2023-01-10T00:34:18.328Z,100388.50
2023-01-10T00:36:47.927Z,100390.38
2023-01-10T00:39:18.184Z,100389.47
2023-01-10T00:42:03.561Z,100379.22
2023-01-10T00:44:31.419Z,100379.16
2023-01-10T00:47:00.708Z,100372.34
2023-01-10T00:49:28.667Z,100373.22
2023-01-10T00:51:58.275Z,100377.50
2023-01-10T00:54:26.595Z,100373.28
2023-01-10T00:56:54.488Z,100363.88
2023-01-10T00:59:22.851Z,100369.09
2023-01-10T01:01:50.961Z,100365.53
2023-01-10T01:04:20.322Z,100364.78
2023-01-10T01:06:49.049Z,100371.69
2023-01-10T01:09:16.961Z,100370.00
2023-01-10T01:11:44.916Z,100365.66
2023-01-10T01:14:12.840Z,100368.31
2023-01-10T01:16:40.797Z,100371.81
2023-01-10T01:19:08.703Z,100366.66
2023-01-10T01:21:37.983Z,100378.69
2023-01-10T01:24:06.119Z,100376.09
2023-01-10T01:26:35.344Z,100386.44
2023-01-10T01:29:03.209Z,100381.38
2023-01-10T01:31:31.186Z,100382.19
2023-01-10T01:33:59.281Z,100378.78
2023-01-10T01:36:27.172Z,100386.59
2023-01-10T01:38:56.495Z,100388.31
2023-01-10T01:41:41.596Z,100387.47
2023-01-10T01:44:17.193Z,100390.94
2023-01-10T01:46:48.287Z,100393.47
2023-01-10T01:49:19.268Z,100389.16
2023-01-10T01:51:49.218Z,100384.00
2023-01-10T01:54:19.773Z,100389.22
2023-01-10T01:56:52.635Z,100392.63
2023-01-10T01:59:25.817Z,100391.81
2023-01-10T02:01:59.020Z,100396.03
2023-01-10T02:04:33.256Z,100387.47
2023-01-10T02:07:01.273Z,100398.69
2023-01-10T02:09:35.853Z,100390.09
2023-01-10T02:12:04.139Z,100395.25
2023-01-10T02:14:33.196Z,100390.88
2023-01-10T02:17:01.112Z,100400.28
2023-01-10T02:19:38.102Z,100389.97
2023-01-10T02:22:35.201Z,100386.59
2023-01-10T02:25:40.882Z,100389.22
2023-01-10T02:28:36.279Z,100394.38
2023-01-10T02:32:04.027Z,100392.69
2023-01-10T02:34:40.754Z,100390.09
2023-01-10T02:37:15.538Z,100390.16
2023-01-10T02:39:54.268Z,100392.69
2023-01-10T02:42:28.823Z,100386.72
2023-01-10T02:45:06.169Z,100388.44
2023-01-10T02:47:37.838Z,100392.63
2023-01-10T02:50:30.841Z,100387.59
2023-01-10T02:53:03.201Z,100385.84
2023-01-10T02:55:41.856Z,100380.69
2023-01-10T02:58:20.907Z,100375.47
2023-01-10T03:00:58.233Z,100376.41
2023-01-10T03:03:35.457Z,100377.28
2023-01-10T03:06:24.051Z,100369.59
2023-01-10T03:08:57.711Z,100372.13
2023-01-10T03:11:41.013Z,100365.22
2023-01-10T03:14:15.542Z,100362.66
2023-01-10T03:16:47.507Z,100366.16
2023-01-10T03:19:18.846Z,100372.97
2023-01-10T03:21:53.683Z,100369.53
2023-01-10T03:24:26.581Z,100364.44
2023-01-10T03:26:59.314Z,100367.88
2023-01-10T03:29:34.199Z,100369.59
2023-01-10T03:32:07.407Z,100365.34
2023-01-10T03:34:36.215Z,100367.88
2023-01-10T03:37:14.595Z,100358.41
2023-01-10T03:39:51.906Z,100368.78
2023-01-10T03:42:30.033Z,100364.44
2023-01-10T03:45:01.980Z,100363.63
2023-01-10T03:47:36.589Z,100369.66
2023-01-10T03:50:08.373Z,100366.28
2023-01-10T03:52:38.656Z,100367.09
2023-01-10T03:55:08.472Z,100370.50
2023-01-10T03:57:36.382Z,100374.00
2023-01-10T04:00:05.543Z,100374.00
2023-01-10T04:02:34.001Z,100382.56
2023-01-10T04:05:01.846Z,100379.09
2023-01-10T04:07:29.778Z,100379.91
2023-01-10T04:10:02.000Z,100379.91
2023-01-10T04:12:29.836Z,100375.53
2023-01-10T04:14:57.705Z,100378.13
2023-01-10T04:17:25.572Z,100382.38
2023-01-10T04:19:53.502Z,100385.84
2023-01-10T04:22:21.315Z,100379.78
2023-01-10T04:24:51.984Z,100382.38
2023-01-10T04:27:21.779Z,100375.47
2023-01-10T04:29:49.779Z,100378.13
2023-01-10T04:32:17.739Z,100377.22
2023-01-10T04:34:45.705Z,100374.63
2023-01-10T04:37:13.651Z,100375.41
2023-01-10T04:39:41.608Z,100374.50
2023-01-10T04:42:09.572Z,100378.91
2023-01-10T04:44:38.900Z,100383.16
2023-01-10T04:47:10.124Z,100385.72
2023-01-10T04:49:38.076Z,100389.16
2023-01-10T04:52:05.975Z,100380.50
2023-01-10T04:54:33.871Z,100384.00
2023-01-10T04:57:01.733Z,100384.88
2023-01-10T04:59:29.815Z,100384.00
2023-01-10T05:01:59.805Z,100383.09
2023-01-10T05:04:27.765Z,100377.94
2023-01-10T05:06:55.663Z,100377.94
2023-01-10T05:09:23.603Z,100376.22
2023-01-10T05:11:51.542Z,100376.97
2023-01-10T05:14:19.587Z,100377.75
2023-01-10T05:16:47.546Z,100386.38
2023-01-10T05:19:16.983Z,100388.94
2023-01-10T05:21:44.868Z,100386.28
2023-01-10T05:24:15.499Z,100385.34
2023-01-10T05:26:46.876Z,100385.34
2023-01-10T05:29:15.559Z,100385.34
2023-01-10T05:31:46.202Z,100383.59
2023-01-10T05:34:14.181Z,100388.75
2023-01-10T05:36:46.059Z,100396.50
2023-01-10T05:39:14.171Z,100387.03
2023-01-10T05:41:42.092Z,100394.75
2023-01-10T05:44:10.425Z,100395.53
2023-01-10T05:46:38.283Z,100393.78
2023-01-10T05:49:06.168Z,100392.06
2023-01-10T05:51:34.120Z,100398.00
2023-01-10T05:54:03.504Z,100394.50
2023-01-10T05:56:31.632Z,100397.09
2023-01-10T05:59:06.601Z,100402.19
2023-01-10T06:01:39.628Z,100404.75
2023-01-10T06:04:07.568Z,100407.28
2023-01-10T06:06:35.575Z,100404.69
2023-01-10T06:09:05.040Z,100400.31
2023-01-10T06:11:36.509Z,100404.56
2023-01-10T06:14:04.446Z,100398.50
2023-01-10T06:16:32.555Z,100397.69
2023-01-10T06:19:00.439Z,100395.09
2023-01-10T06:21:28.357Z,100397.69
2023-01-10T06:23:57.875Z,100399.34
2023-01-10T06:26:27.224Z,100398.50
2023-01-10T06:28:55.075Z,100405.34
2023-01-10T06:31:23.064Z,100403.59
2023-01-10T06:33:52.333Z,100404.44
2023-01-10T06:36:20.331Z,100406.09
2023-01-10T06:38:48.268Z,100406.97
2023-01-10T06:41:16.178Z,100411.25
2023-01-10T06:43:46.753Z,100407.03
2023-01-10T06:46:16.667Z,100407.81
2023-01-10T06:48:45.710Z,100411.13
2023-01-10T06:51:14.374Z,100411.13
2023-01-10T06:53:42.465Z,100409.41
2023-01-10T06:56:10.884Z,100411.91
2023-01-10T06:58:39.609Z,100411.00
2023-01-10T07:01:14.864Z,100413.53
2023-01-10T07:03:42.944Z,100404.91
2023-01-10T07:06:11.519Z,100419.47
2023-01-10T07:08:40.781Z,100414.31
2023-01-10T07:11:09.444Z,100420.31
2023-01-10T07:13:37.755Z,100423.09
2023-01-10T07:16:06.993Z,100431.66
2023-01-10T07:18:37.629Z,100435.94
2023-01-10T07:21:05.979Z,100440.31
2023-01-10T07:23:33.913Z,100434.28
2023-01-10T07:26:04.450Z,100434.16
2023-01-10T07:28:34.369Z,100442.75
2023-01-10T07:31:03.165Z,100442.81
2023-01-10T07:33:31.420Z,100447.06
2023-01-10T07:36:01.691Z,100453.06
2023-01-10T07:38:29.618Z,100455.59
2023-01-10T07:40:57.662Z,100466.75
2023-01-10T07:43:25.555Z,100461.47
2023-01-10T07:45:53.568Z,100460.69
2023-01-10T07:48:21.435Z,100465.72
2023-01-10T07:50:49.329Z,100468.19
2023-01-10T07:53:18.623Z,100469.09
2023-01-10T07:55:46.592Z,100473.41
2023-01-10T07:58:14.618Z,100475.00
2023-01-10T08:00:42.663Z,100470.69
2023-01-10T08:03:11.919Z,100471.53
2023-01-10T08:05:39.837Z,100474.13
2023-01-10T08:08:08.395Z,100479.22
2023-01-10T08:10:38.917Z,100482.75
2023-01-10T08:13:17.760Z,100482.69
2023-01-10T08:15:47.253Z,100477.47
2023-01-10T08:18:15.482Z,100479.06
2023-01-10T08:20:43.446Z,100473.00
2023-01-10T08:23:14.834Z,100481.56
2023-01-10T08:25:44.061Z,100483.28
2023-01-10T08:28:15.088Z,100488.38
2023-01-10T08:30:46.143Z,100483.09
2023-01-10T08:33:14.080Z,100492.44
2023-01-10T08:35:43.858Z,100499.25
2023-01-10T08:38:13.065Z,100493.91
2023-01-10T08:40:40.911Z,100495.66
2023-01-10T08:43:12.895Z,100499.00
2023-01-10T08:45:41.215Z,100513.63
2023-01-10T08:48:10.243Z,100522.16
2023-01-10T08:50:38.179Z,100516.13
2023-01-10T08:53:06.259Z,100519.41
2023-01-10T08:55:35.384Z,100523.69
2023-01-10T08:58:03.798Z,100527.09
2023-01-10T09:00:33.157Z,100529.59
2023-01-10T09:03:01.115Z,100529.59
2023-01-10T09:05:29.104Z,100525.22
2023-01-10T09:08:01.028Z,100521.72
2023-01-10T09:10:29.269Z,100535.47
2023-01-10T09:12:59.996Z,100538.91
2023-01-10T09:15:30.392Z,100536.28
2023-01-10T09:18:01.631Z,100541.31
2023-01-10T09:20:30.708Z,100543.81
2023-01-10T09:22:59.672Z,100540.34
2023-01-10T09:25:28.076Z,100535.94
2023-01-10T09:28:00.023Z,100548.81
2023-01-10T09:30:28.544Z,100567.69
2023-01-10T09:32:57.389Z,100568.47
2023-01-10T09:35:28.743Z,100564.09
2023-01-10T09:37:57.316Z,100571.84
2023-01-10T09:40:35.268Z,100572.53
2023-01-10T09:43:11.630Z,100570.03
2023-01-10T09:45:50.204Z,100569.94
2023-01-10T09:48:25.403Z,100587.19
2023-01-10T09:51:10.363Z,100581.97
2023-01-10T09:53:43.938Z,100588.88
2023-01-10T09:56:15.627Z,100580.16
2023-01-10T09:58:44.951Z,100582.69
2023-01-10T10:01:17.251Z,100584.41
2023-01-10T10:03:53.003Z,100582.75
2023-01-10T10:06:24.202Z,100586.94
2023-01-10T10:08:53.277Z,100595.59
2023-01-10T10:11:47.378Z,100599.84
2023-01-10T10:14:28.772Z,100607.59
2023-01-10T10:17:10.399Z,100611.09
2023-01-10T10:19:56.416Z,100606.66
2023-01-10T10:22:33.990Z,100605.72
2023-01-10T10:25:15.756Z,100609.16
2023-01-10T10:28:06.258Z,100600.44
2023-01-10T10:30:46.153Z,100604.75
2023-01-10T10:33:41.072Z,100613.41
2023-01-10T10:36:16.319Z,100621.88
2023-01-10T10:38:49.144Z,100621.03
2023-01-10T10:41:23.565Z,100620.13
2023-01-10T10:43:52.253Z,100630.41
2023-01-10T10:46:20.590Z,100632.09
2023-01-10T10:48:57.003Z,100626.88
2023-01-10T10:51:28.752Z,100632.84
2023-01-10T10:53:58.959Z,100627.69
2023-01-10T10:56:27.823Z,100631.31
2023-01-10T10:58:57.140Z,100634.69
2023-01-10T11:01:26.849Z,100631.19
2023-01-10T11:03:59.398Z,100635.44
2023-01-10T11:06:32.702Z,100639.66
2023-01-10T11:09:05.675Z,100637.06
2023-01-10T11:11:36.748Z,100636.94
2023-01-10T11:14:06.815Z,100639.47
2023-01-10T11:16:39.057Z,100623.09
2023-01-10T11:19:20.932Z,100635.06
2023-01-10T11:21:53.388Z,100631.59
2023-01-10T11:24:35.215Z,100629.75
2023-01-10T11:27:06.529Z,100627.88
2023-01-10T11:29:39.951Z,100626.22
2023-01-10T11:32:15.380Z,100626.91
2023-01-10T11:34:49.172Z,100628.63
2023-01-10T11:37:22.571Z,100612.25
2023-01-10T11:40:11.213Z,100616.31
2023-01-10T11:42:39.068Z,100629.16
2023-01-10T11:45:24.147Z,100639.50
2023-01-10T11:47:55.538Z,100638.53
2023-01-10T11:50:26.236Z,100635.00
2023-01-10T11:52:54.719Z,100633.94
2023-01-10T11:55:26.636Z,100626.13
2023-01-10T11:58:05.146Z,100631.22
2023-01-10T12:00:36.306Z,100633.94
2023-01-10T12:03:15.561Z,100634.59
2023-01-10T12:05:53.869Z,100632.91
2023-01-10T12:08:31.713Z,100642.28
2023-01-10T12:11:07.523Z,100643.19
2023-01-10T12:13:47.442Z,100651.66
2023-01-10T12:16:22.473Z,100651.66
2023-01-10T12:18:52.279Z,100655.91
2023-01-10T12:21:27.962Z,100667.81
2023-01-10T12:24:00.935Z,100663.34
2023-01-10T12:26:31.955Z,100670.28
2023-01-10T12:29:08.849Z,100672.84
2023-01-10T12:31:40.598Z,100681.44
2023-01-10T12:34:17.349Z,100676.25
2023-01-10T12:36:55.968Z,100676.97
2023-01-10T12:39:26.585Z,100670.88
2023-01-10T12:42:30.446Z,100678.66
2023-01-10T12:45:04.025Z,100682.09
2023-01-10T12:47:36.157Z,100684.66
2023-01-10T12:50:10.505Z,100695.88
2023-01-10T12:52:47.452Z,100700.97
2023-01-10T12:55:17.126Z,100700.13
2023-01-10T12:57:51.924Z,100706.06
2023-01-10T13:00:25.355Z,100704.25
2023-01-10T13:02:55.808Z,100710.13
2023-01-10T13:05:25.819Z,100705.81
2023-01-10T13:07:57.060Z,100704.97
2023-01-10T13:10:27.473Z,100709.34
2023-01-10T13:13:02.998Z,100707.50
2023-01-10T13:15:35.440Z,100717.03
2023-01-10T13:18:06.680Z,100714.41
2023-01-10T13:20:40.204Z,100722.94
2023-01-10T13:23:22.447Z,100733.28
2023-01-10T13:25:59.258Z,100735.03
2023-01-10T13:28:30.965Z,100735.94
2023-01-10T13:31:02.087Z,100729.84
2023-01-10T13:33:32.442Z,100722.09
2023-01-10T13:36:10.619Z,100731.56
2023-01-10T13:38:46.710Z,100722.94
2023-01-10T13:41:28.497Z,100729.78
2023-01-10T13:44:07.346Z,100724.47
2023-01-10T13:46:47.532Z,100725.31
2023-01-10T13:49:32.916Z,100729.03
2023-01-10T13:52:40.423Z,100732.31
2023-01-10T13:55:29.723Z,100736.66
2023-01-10T13:58:00.716Z,100734.06
2023-01-10T14:01:06.873Z,100732.31
2023-01-10T14:03:41.594Z,100738.94
2023-01-10T14:06:15.541Z,100738.13
2023-01-10T14:08:51.395Z,100744.97
2023-01-10T14:11:20.814Z,100751.81
2023-01-10T14:13:53.177Z,100761.22
2023-01-10T14:16:35.758Z,100761.00
2023-01-10T14:19:09.270Z,100766.06
2023-01-10T14:21:45.586Z,100769.47
2023-01-10T14:24:26.099Z,100767.72
2023-01-10T14:26:57.385Z,100770.25
2023-01-10T14:29:28.423Z,100771.91
2023-01-10T14:31:58.094Z,100776.16
2023-01-10T14:34:28.203Z,100774.38
2023-01-10T14:37:00.797Z,100778.47
2023-01-10T14:39:30.363Z,100775.88
2023-01-10T14:42:02.685Z,100774.03
2023-01-10T14:44:36.848Z,100772.38
2023-01-10T14:47:06.325Z,100777.41
2023-01-10T14:49:36.232Z,100779.94
2023-01-10T14:52:15.332Z,100781.53
2023-01-10T14:54:43.238Z,100792.81
2023-01-10T14:57:20.134Z,100789.38
2023-01-10T14:59:48.657Z,100788.44
2023-01-10T15:02:24.736Z,100787.50
2023-01-10T15:04:56.675Z,100790.94
2023-01-10T15:07:25.745Z,100784.91
2023-01-10T15:09:56.452Z,100785.84
2023-01-10T15:12:26.916Z,100788.34
2023-01-10T15:15:02.492Z,100781.47
2023-01-10T15:17:32.767Z,100785.00
2023-01-10T15:20:00.501Z,100797.00
2023-01-10T15:22:31.310Z,100787.31
2023-01-10T15:25:03.779Z,100777.09
2023-01-10T15:27:33.908Z,100787.38
2023-01-10T15:30:02.667Z,100796.75
2023-01-10T15:32:35.744Z,100798.50
2023-01-10T15:35:04.257Z,100791.63
2023-01-10T15:37:37.656Z,100794.16
2023-01-10T15:40:09.351Z,100792.47
2023-01-10T15:42:38.224Z,100799.34
2023-01-10T15:45:23.647Z,100795.75
2023-01-10T15:48:00.173Z,100808.63
2023-01-10T15:50:31.941Z,100804.31
2023-01-10T15:53:02.016Z,100807.03
2023-01-10T15:55:45.418Z,100820.03
2023-01-10T15:58:19.709Z,100814.78
2023-01-10T16:00:49.373Z,100816.34
2023-01-10T16:03:27.533Z,100814.66
2023-01-10T16:05:59.069Z,100815.50
2023-01-10T16:08:29.047Z,100824.16
2023-01-10T16:10:59.996Z,100820.81
2023-01-10T16:13:27.844Z,100820.09
2023-01-10T16:15:56.863Z,100830.34
2023-01-10T16:18:26.236Z,100827.00
2023-01-10T16:20:57.381Z,100832.16
2023-01-10T16:23:27.108Z,100833.84
2023-01-10T16:25:57.783Z,100832.97
2023-01-10T16:28:27.453Z,100835.50
2023-01-10T16:30:55.339Z,100831.25
2023-01-10T16:33:29.419Z,100829.56
2023-01-10T16:36:00.841Z,100835.72
2023-01-10T16:38:29.949Z,100837.47
2023-01-10T16:41:00.758Z,100843.53
2023-01-10T16:43:29.382Z,100842.78
2023-01-10T16:46:00.028Z,100844.44
2023-01-10T16:48:29.859Z,100856.53
2023-01-10T16:51:06.708Z,100856.66
2023-01-10T16:53:34.639Z,100858.44
2023-01-10T16:56:02.618Z,100869.53
2023-01-10T16:58:30.555Z,100860.13
2023-01-10T17:00:59.466Z,100866.06
2023-01-10T17:03:27.976Z,100871.25
2023-01-10T17:05:55.801Z,100863.56
2023-01-10T17:08:25.987Z,100869.59
2023-01-10T17:10:56.270Z,100877.56
2023-01-10T17:13:28.440Z,100865.28
2023-01-10T17:15:56.536Z,100872.19
2023-01-10T17:18:26.016Z,100872.19
2023-01-10T17:20:54.457Z,100867.88
2023-01-10T17:23:24.425Z,100860.19
2023-01-10T17:25:59.867Z,100865.28
2023-01-10T17:28:28.883Z,100867.88
2023-01-10T17:30:57.200Z,100862.63
2023-01-10T17:33:25.295Z,100866.91
2023-01-10T17:35:54.887Z,100859.91
2023-01-10T17:38:25.561Z,100870.34
2023-01-10T17:40:54.167Z,100876.38
2023-01-10T17:43:22.540Z,100875.38
2023-01-10T17:45:52.538Z,100877.91
2023-01-10T17:48:20.563Z,100879.50
2023-01-10T17:50:49.706Z,100886.31
2023-01-10T17:53:19.065Z,100886.38
2023-01-10T17:55:49.483Z,100883.78
2023-01-10T17:58:18.689Z,100880.31
2023-01-10T18:00:48.557Z,100876.09
2023-01-10T18:03:16.793Z,100886.97
2023-01-10T18:05:52.618Z,100884.31
2023-01-10T18:08:20.626Z,100883.44
2023-01-10T18:10:50.304Z,100886.69
2023-01-10T18:13:20.368Z,100896.34
2023-01-10T18:15:50.144Z,100907.47
2023-01-10T18:18:21.285Z,100911.88
2023-01-10T18:20:50.311Z,100914.31
2023-01-10T18:23:25.488Z,100918.81
2023-01-10T18:25:56.825Z,100912.78
2023-01-10T18:28:39.609Z,100917.97
2023-01-10T18:31:09.998Z,100917.97
2023-01-10T18:33:38.152Z,100915.44
2023-01-10T18:36:07.643Z,100917.03
2023-01-10T18:38:36.720Z,100916.22
2023-01-10T18:41:06.421Z,100922.16
2023-01-10T18:43:34.395Z,100930.66
2023-01-10T18:46:04.264Z,100929.66
2023-01-10T18:48:32.339Z,100926.25
2023-01-10T18:51:01.968Z,100934.78
2023-01-10T18:53:30.088Z,100933.25
2023-01-10T18:55:59.723Z,100922.81
2023-01-10T18:58:31.628Z,100936.75
2023-01-10T19:00:59.710Z,100937.75
2023-01-10T19:03:27.622Z,100935.09
2023-01-10T19:05:55.630Z,100937.69
2023-01-10T19:08:23.448Z,100937.69
2023-01-10T19:11:11.826Z,100942.88
2023-01-10T19:13:40.682Z,100928.19
2023-01-10T19:16:10.511Z,100935.09
2023-01-10T19:18:38.504Z,100932.44
2023-01-10T19:21:08.755Z,100924.69
2023-01-10T19:23:36.445Z,100926.56
2023-01-10T19:26:04.369Z,100930.00
2023-01-10T19:28:32.351Z,100924.69
2023-01-10T19:31:05.423Z,100924.81
2023-01-10T19:33:34.582Z,100915.38
2023-01-10T19:36:06.380Z,100920.56
2023-01-10T19:38:34.670Z,100912.59
2023-01-10T19:41:02.752Z,100915.31
2023-01-10T19:43:30.939Z,100904.28
2023-01-10T19:45:58.919Z,100896.66
2023-01-10T19:48:28.220Z,100911.50
2023-01-10T19:50:56.115Z,100915.75
2023-01-10T19:53:27.148Z,100917.72
2023-01-10T19:56:02.005Z,100920.56
2023-01-10T19:58:32.985Z,100925.00
2023-01-10T20:01:08.177Z,100921.56
2023-01-10T20:03:37.978Z,100918.09
2023-01-10T20:06:06.684Z,100915.50
2023-01-10T20:08:34.567Z,100908.63
2023-01-10T20:11:05.347Z,100913.75
2023-01-10T20:13:33.727Z,100917.13
2023-01-10T20:16:01.661Z,100910.97
2023-01-10T20:18:30.590Z,100921.19
2023-01-10T20:21:01.393Z,100920.19
2023-01-10T20:23:31.943Z,100909.66
2023-01-10T20:26:03.363Z,100917.38
2023-01-10T20:28:32.119Z,100912.72
2023-01-10T20:31:00.290Z,100911.81
2023-01-10T20:33:28.507Z,100920.34
2023-01-10T20:35:59.326Z,100909.88
2023-01-10T20:38:27.885Z,100919.38
2023-01-10T20:40:57.858Z,100917.63
2023-01-10T20:43:25.962Z,100915.63
2023-01-10T20:45:53.858Z,100915.63
2023-01-10T20:48:22.556Z,100912.19
2023-01-10T20:50:50.791Z,100913.13
2023-01-10T20:53:20.048Z,100922.50
2023-01-10T20:55:59.155Z,100915.63
2023-01-10T20:58:27.733Z,100906.88
2023-01-10T21:00:55.897Z,100903.56
2023-01-10T21:03:23.889Z,100894.84
2023-01-10T21:05:52.335Z,100900.78
2023-01-10T21:08:23.177Z,100901.50
2023-01-10T21:10:52.152Z,100907.59
2023-01-10T21:13:20.090Z,100905.97
2023-01-10T21:15:48.734Z,100904.88
2023-01-10T21:18:17.307Z,100897.06
2023-01-10T21:20:46.438Z,100896.91
2023-01-10T21:23:17.254Z,100903.84
2023-01-10T21:25:46.847Z,100911.41
2023-01-10T21:28:14.827Z,100903.63
2023-01-10T21:30:42.663Z,100907.84
2023-01-10T21:33:11.850Z,100909.53
2023-01-10T21:35:40.203Z,100906.81
2023-01-10T21:38:08.144Z,100904.97
2023-01-10T21:40:36.186Z,100911.00
2023-01-10T21:43:05.561Z,100919.47
2023-01-10T21:45:35.496Z,100918.72
2023-01-10T21:48:03.392Z,100916.19
2023-01-10T21:50:33.710Z,100916.13
2023-01-10T21:53:01.919Z,100916.13
2023-01-10T21:55:30.114Z,100909.09
2023-01-10T21:57:58.245Z,100918.50
2023-01-10T22:00:27.818Z,100903.72
2023-01-10T22:02:57.476Z,100899.38
2023-01-10T22:05:26.030Z,100898.53
2023-01-10T22:07:54.176Z,100904.44
2023-01-10T22:10:22.067Z,100905.28
2023-01-10T22:12:50.113Z,100912.06
2023-01-10T22:15:18.140Z,100910.47
2023-01-10T22:17:48.172Z,100907.88
2023-01-10T22:20:16.909Z,100915.72
2023-01-10T22:22:44.922Z,100911.44
2023-01-10T22:25:12.866Z,100908.00
2023-01-10T22:27:42.453Z,100905.28
2023-01-10T22:30:13.181Z,100918.19
2023-01-10T22:32:41.149Z,100922.56
2023-01-10T22:35:13.689Z,100922.56
2023-01-10T22:37:41.890Z,100927.69
2023-01-10T22:40:11.292Z,100931.94
2023-01-10T22:42:39.247Z,100920.84
2023-01-10T22:45:08.001Z,100930.34
2023-01-10T22:47:35.879Z,100922.56
2023-01-10T22:50:03.843Z,100928.59
2023-01-10T22:52:33.486Z,100916.41
2023-01-10T22:55:01.386Z,100917.38
2023-01-10T22:57:32.998Z,100926.03
2023-01-10T23:00:01.135Z,100926.91
2023-01-10T23:02:29.261Z,100930.34
2023-01-10T23:04:57.205Z,100936.19
2023-01-10T23:07:25.072Z,100935.31
2023-01-10T23:09:54.388Z,100934.47
2023-01-10T23:12:22.378Z,100934.47
2023-01-10T23:14:50.272Z,100931.00
2023-01-10T23:17:18.216Z,100925.75
2023-01-10T23:19:46.127Z,100914.59
2023-01-10T23:22:14.025Z,100911.09
2023-01-10T23:24:41.870Z,100916.41
2023-01-10T23:27:11.167Z,100925.16
2023-01-10T23:29:39.180Z,100920.84
2023-01-10T23:32:07.114Z,100917.19
2023-01-10T23:34:35.085Z,100917.25
2023-01-10T23:37:03.273Z,100919.50
2023-01-10T23:39:31.197Z,100918.72
2023-01-10T23:41:59.105Z,100902.22
2023-01-10T23:44:29.908Z,100893.53
2023-01-10T23:46:57.873Z,100887.56
2023-01-10T23:49:25.720Z,100889.25
2023-01-10T23:51:53.532Z,100885.88
2023-01-10T23:54:22.149Z,100884.97
2023-01-10T23:56:52.341Z,100873.78
2023-01-10T23:59:20.456Z,100877.25
